sensor_id;sensor_type;location;lat;lon;timestamp;pressure;altitude;pressure_sealevel;temperature;humidity
27712;BME280;2377;51.734;8.950;2024-01-07T00:02:19;97621.69;;;1.82;100.00
27712;BME280;2377;51.734;8.950;2024-01-07T00:04:46;97620.56;;;1.84;100.00
27712;BME280;2377;51.734;8.950;2024-01-07T00:07:15;97621.34;;;1.85;100.00
27712;BME280;2377;51.734;8.950;2024-01-07T00:09:42;97625.59;;;1.84;100.00
27712;BME280;2377;51.734;8.950;2024-01-07T00:12:09;97629.88;;;1.84;100.00
27712;BME280;2377;51.734;8.950;2024-01-07T00:14:36;97634.09;;;1.83;100.00
27712;BME280;2377;51.734;8.950;2024-01-07T00:17:03;97628.59;;;1.80;100.00
27712;BME280;2377;51.734;8.950;2024-01-07T00:19:30;97638.22;;;1.76;100.00
27712;BME280;2377;51.734;8.950;2024-01-07T00:21:58;97645.47;;;1.71;100.00
27712;BME280;2377;51.734;8.950;2024-01-07T00:24:26;97649.88;;;1.69;100.00
27712;BME280;2377;51.734;8.950;2024-01-07T00:26:55;97651.16;;;1.65;100.00
27712;BME280;2377;51.734;8.950;2024-01-07T00:29:22;97651.44;;;1.62;100.00
27712;BME280;2377;51.734;8.950;2024-01-07T00:31:49;97661.69;;;1.60;100.00
27712;BME280;2377;51.734;8.950;2024-01-07T00:34:19;97655.84;;;1.60;100.00
27712;BME280;2377;51.734;8.950;2024-01-07T00:36:46;97656.34;;;1.55;100.00
27712;BME280;2377;51.734;8.950;2024-01-07T00:39:13;97661.22;;;1.57;100.00
27712;BME280;2377;51.734;8.950;2024-01-07T00:41:41;97662.19;;;1.56;100.00
27712;BME280;2377;51.734;8.950;2024-01-07T00:44:08;97659.34;;;1.59;100.00
27712;BME280;2377;51.734;8.950;2024-01-07T00:46:36;97665.34;;;1.58;100.00
27712;BME280;2377;51.734;8.950;2024-01-07T00:49:03;97668.63;;;1.58;100.00
27712;BME280;2377;51.734;8.950;2024-01-07T00:51:30;97672.88;;;1.58;100.00
27712;BME280;2377;51.734;8.950;2024-01-07T00:53:57;97683.88;;;1.57;100.00
27712;BME280;2377;51.734;8.950;2024-01-07T00:56:26;97680.44;;;1.58;100.00
27712;BME280;2377;51.734;8.950;2024-01-07T00:58:54;97691.13;;;1.60;100.00
27712;BME280;2377;51.734;8.950;2024-01-07T01:01:21;97681.38;;;1.57;100.00
27712;BME280;2377;51.734;8.950;2024-01-07T01:03:48;97692.41;;;1.56;100.00
27712;BME280;2377;51.734;8.950;2024-01-07T01:06:15;97700.88;;;1.55;100.00
27712;BME280;2377;51.734;8.950;2024-01-07T01:08:42;97706.69;;;1.55;100.00
27712;BME280;2377;51.734;8.950;2024-01-07T01:11:10;97702.75;;;1.53;100.00
27712;BME280;2377;51.734;8.950;2024-01-07T01:13:37;97698.84;;;1.50;100.00
27712;BME280;2377;51.734;8.950;2024-01-07T01:16:06;97709.09;;;1.48;100.00
27712;BME280;2377;51.734;8.950;2024-01-07T01:18:33;97704.69;;;1.51;100.00
27712;BME280;2377;51.734;8.950;2024-01-07T01:21:00;97701.69;;;1.47;100.00
27712;BME280;2377;51.734;8.950;2024-01-07T01:23:27;97716.00;;;1.46;100.00
27712;BME280;2377;51.734;8.950;2024-01-07T01:25:54;97721.97;;;1.45;100.00
27712;BME280;2377;51.734;8.950;2024-01-07T01:28:21;97721.97;;;1.45;100.00
27712;BME280;2377;51.734;8.950;2024-01-07T01:30:48;97725.75;;;1.50;100.00
27712;BME280;2377;51.734;8.950;2024-01-07T01:33:17;97722.31;;;1.51;100.00
27712;BME280;2377;51.734;8.950;2024-01-07T01:35:44;97727.50;;;1.49;100.00
27712;BME280;2377;51.734;8.950;2024-01-07T01:38:11;97728.28;;;1.50;100.00
27712;BME280;2377;51.734;8.950;2024-01-07T01:40:38;97733.44;;;1.48;100.00
27712;BME280;2377;51.734;8.950;2024-01-07T01:43:08;97731.56;;;1.50;100.00
27712;BME280;2377;51.734;8.950;2024-01-07T01:45:35;97727.16;;;1.52;100.00
27712;BME280;2377;51.734;8.950;2024-01-07T01:48:03;97735.50;;;1.53;100.00
27712;BME280;2377;51.734;8.950;2024-01-07T01:50:32;97741.50;;;1.52;100.00
27712;BME280;2377;51.734;8.950;2024-01-07T01:52:59;97741.66;;;1.50;100.00
27712;BME280;2377;51.734;8.950;2024-01-07T01:55:27;97745.56;;;1.53;100.00
27712;BME280;2377;51.734;8.950;2024-01-07T01:57:55;97738.03;;;1.53;100.00
27712;BME280;2377;51.734;8.950;2024-01-07T02:00:25;97732.66;;;1.47;100.00
27712;BME280;2377;51.734;8.950;2024-01-07T02:02:53;97745.25;;;1.47;100.00
27712;BME280;2377;51.734;8.950;2024-01-07T02:05:20;97747.16;;;1.45;100.00
27712;BME280;2377;51.734;8.950;2024-01-07T02:07:49;97742.09;;;1.45;100.00
27712;BME280;2377;51.734;8.950;2024-01-07T02:10:17;97744.00;;;1.43;100.00
27712;BME280;2377;51.734;8.950;2024-01-07T02:12:45;97753.28;;;1.43;100.00
27712;BME280;2377;51.734;8.950;2024-01-07T02:15:12;97748.06;;;1.36;100.00
27712;BME280;2377;51.734;8.950;2024-01-07T02:17:40;97759.75;;;1.37;100.00
27712;BME280;2377;51.734;8.950;2024-01-07T02:20:08;97751.22;;;1.38;100.00
27712;BME280;2377;51.734;8.950;2024-01-07T02:22:35;97756.25;;;1.38;100.00
27712;BME280;2377;51.734;8.950;2024-01-07T02:25:04;97754.69;;;1.37;100.00
27712;BME280;2377;51.734;8.950;2024-01-07T02:27:32;97756.13;;;1.40;100.00
27712;BME280;2377;51.734;8.950;2024-01-07T02:29:59;97756.25;;;1.38;100.00
27712;BME280;2377;51.734;8.950;2024-01-07T02:32:26;97759.09;;;1.35;100.00
27712;BME280;2377;51.734;8.950;2024-01-07T02:34:53;97758.91;;;1.29;100.00
27712;BME280;2377;51.734;8.950;2024-01-07T02:37:20;97762.84;;;1.31;100.00
27712;BME280;2377;51.734;8.950;2024-01-07T02:39:47;97761.28;;;1.30;100.00
27712;BME280;2377;51.734;8.950;2024-01-07T02:42:16;97770.09;;;1.26;100.00
27712;BME280;2377;51.734;8.950;2024-01-07T02:44:43;97776.09;;;1.25;100.00
27712;BME280;2377;51.734;8.950;2024-01-07T02:47:10;97770.88;;;1.26;100.00
27712;BME280;2377;51.734;8.950;2024-01-07T02:49:37;97772.94;;;1.23;100.00
27712;BME280;2377;51.734;8.950;2024-01-07T02:52:05;97774.50;;;1.24;100.00
27712;BME280;2377;51.734;8.950;2024-01-07T02:54:32;97778.75;;;1.23;100.00
27712;BME280;2377;51.734;8.950;2024-01-07T02:56:59;97783.00;;;1.23;100.00
27712;BME280;2377;51.734;8.950;2024-01-07T02:59:27;97786.59;;;1.20;100.00
27712;BME280;2377;51.734;8.950;2024-01-07T03:01:54;97790.69;;;1.21;100.00
27712;BME280;2377;51.734;8.950;2024-01-07T03:04:22;97787.38;;;1.21;100.00
27712;BME280;2377;51.734;8.950;2024-01-07T03:06:49;97796.81;;;1.19;100.00
27712;BME280;2377;51.734;8.950;2024-01-07T03:09:16;97797.59;;;1.19;100.00
27712;BME280;2377;51.734;8.950;2024-01-07T03:11:43;97800.13;;;1.19;100.00
27712;BME280;2377;51.734;8.950;2024-01-07T03:14:10;97801.84;;;1.19;100.00
27712;BME280;2377;51.734;8.950;2024-01-07T03:16:39;97810.19;;;1.19;100.00
27712;BME280;2377;51.734;8.950;2024-01-07T03:19:06;97815.38;;;1.18;100.00
27712;BME280;2377;51.734;8.950;2024-01-07T03:21:33;97818.84;;;1.17;100.00
27712;BME280;2377;51.734;8.950;2024-01-07T03:24:00;97815.84;;;1.13;100.00
27712;BME280;2377;51.734;8.950;2024-01-07T03:26:30;97815.03;;;1.13;100.00
27712;BME280;2377;51.734;8.950;2024-01-07T03:28:58;97821.03;;;1.12;100.00
27712;BME280;2377;51.734;8.950;2024-01-07T03:31:31;97827.00;;;1.11;100.00
27712;BME280;2377;51.734;8.950;2024-01-07T03:33:59;97826.19;;;1.02;100.00
27712;BME280;2377;51.734;8.950;2024-01-07T03:36:26;97830.38;;;0.93;100.00
27712;BME280;2377;51.734;8.950;2024-01-07T03:38:53;97835.09;;;0.96;100.00
27712;BME280;2377;51.734;8.950;2024-01-07T03:41:21;97835.09;;;0.96;100.00
27712;BME280;2377;51.734;8.950;2024-01-07T03:43:49;97838.44;;;0.97;100.00
27712;BME280;2377;51.734;8.950;2024-01-07T03:46:17;97845.03;;;0.98;100.00
27712;BME280;2377;51.734;8.950;2024-01-07T03:48:45;97844.25;;;0.97;100.00
27712;BME280;2377;51.734;8.950;2024-01-07T03:51:13;97845.81;;;0.98;100.00
27712;BME280;2377;51.734;8.950;2024-01-07T03:53:40;97848.03;;;1.01;100.00
27712;BME280;2377;51.734;8.950;2024-01-07T03:56:07;97844.56;;;1.02;100.00
27712;BME280;2377;51.734;8.950;2024-01-07T03:58:35;97853.06;;;1.01;100.00
27712;BME280;2377;51.734;8.950;2024-01-07T04:01:02;97851.47;;;1.00;100.00
27712;BME280;2377;51.734;8.950;2024-01-07T04:03:29;97850.69;;;1.00;100.00
27712;BME280;2377;51.734;8.950;2024-01-07T04:05:56;97854.59;;;0.94;100.00
27712;BME280;2377;51.734;8.950;2024-01-07T04:08:28;97857.38;;;0.83;100.00
27712;BME280;2377;51.734;8.950;2024-01-07T04:10:55;97861.00;;;0.89;100.00
27712;BME280;2377;51.734;8.950;2024-01-07T04:13:22;97860.88;;;0.90;100.00
27712;BME280;2377;51.734;8.950;2024-01-07T04:15:49;97866.22;;;0.87;100.00
27712;BME280;2377;51.734;8.950;2024-01-07T04:18:16;97871.06;;;0.89;100.00
27712;BME280;2377;51.734;8.950;2024-01-07T04:20:43;97861.78;;;0.89;100.00
27712;BME280;2377;51.734;8.950;2024-01-07T04:23:11;97869.66;;;0.86;100.00
27712;BME280;2377;51.734;8.950;2024-01-07T04:25:39;97871.06;;;0.89;100.00
27712;BME280;2377;51.734;8.950;2024-01-07T04:28:08;97868.72;;;0.87;100.00
27712;BME280;2377;51.734;8.950;2024-01-07T04:30:35;97874.69;;;0.86;100.00
27712;BME280;2377;51.734;8.950;2024-01-07T04:33:03;97878.78;;;0.87;100.00
27712;BME280;2377;51.734;8.950;2024-01-07T04:35:30;97883.81;;;0.87;100.00
27712;BME280;2377;51.734;8.950;2024-01-07T04:37:57;97883.00;;;0.87;100.00
27712;BME280;2377;51.734;8.950;2024-01-07T04:40:24;97885.69;;;0.85;100.00
27712;BME280;2377;51.734;8.950;2024-01-07T04:42:52;97890.72;;;0.85;100.00
27712;BME280;2377;51.734;8.950;2024-01-07T04:45:20;97885.97;;;0.82;100.00
27712;BME280;2377;51.734;8.950;2024-01-07T04:47:47;97887.84;;;0.80;100.00
27712;BME280;2377;51.734;8.950;2024-01-07T04:50:14;97892.69;;;0.73;100.00
27712;BME280;2377;51.734;8.950;2024-01-07T04:52:45;97893.78;;;0.71;100.00
27712;BME280;2377;51.734;8.950;2024-01-07T04:55:12;97893.78;;;0.71;100.00
27712;BME280;2377;51.734;8.950;2024-01-07T04:57:39;97896.13;;;0.72;100.00
27712;BME280;2377;51.734;8.950;2024-01-07T05:00:10;97899.59;;;0.71;100.00
27712;BME280;2377;51.734;8.950;2024-01-07T05:02:37;97907.94;;;0.72;100.00
27712;BME280;2377;51.734;8.950;2024-01-07T05:05:05;97902.69;;;0.65;100.00
27712;BME280;2377;51.734;8.950;2024-01-07T05:07:34;97907.38;;;0.60;100.00
27712;BME280;2377;51.734;8.950;2024-01-07T05:10:02;97911.63;;;0.59;100.00
27712;BME280;2377;51.734;8.950;2024-01-07T05:12:29;97910.03;;;0.58;100.00
27712;BME280;2377;51.734;8.950;2024-01-07T05:14:56;97920.38;;;0.55;99.76
27712;BME280;2377;51.734;8.950;2024-01-07T05:17:25;97922.25;;;0.53;100.00
27712;BME280;2377;51.734;8.950;2024-01-07T05:19:52;97928.34;;;0.51;99.68
27712;BME280;2377;51.734;8.950;2024-01-07T05:22:19;97928.66;;;0.48;99.91
27712;BME280;2377;51.734;8.950;2024-01-07T05:24:46;97925.94;;;0.41;99.92
27712;BME280;2377;51.734;8.950;2024-01-07T05:27:13;97927.00;;;0.38;99.98
27712;BME280;2377;51.734;8.950;2024-01-07T05:29:44;97927.00;;;0.38;100.00
27712;BME280;2377;51.734;8.950;2024-01-07T05:32:13;97937.72;;;0.40;99.79
27712;BME280;2377;51.734;8.950;2024-01-07T05:34:41;97944.91;;;0.35;99.66
27712;BME280;2377;51.734;8.950;2024-01-07T05:37:08;97936.31;;;0.28;100.00
27712;BME280;2377;51.734;8.950;2024-01-07T05:39:35;97946.66;;;0.25;100.00
27712;BME280;2377;51.734;8.950;2024-01-07T05:42:03;97953.44;;;0.25;99.92
27712;BME280;2377;51.734;8.950;2024-01-07T05:44:30;97950.25;;;0.23;100.00
27712;BME280;2377;51.734;8.950;2024-01-07T05:46:57;97953.63;;;0.13;100.00
27712;BME280;2377;51.734;8.950;2024-01-07T05:49:24;97963.53;;;0.15;100.00
27712;BME280;2377;51.734;8.950;2024-01-07T05:51:52;97968.41;;;0.16;100.00
27712;BME280;2377;51.734;8.950;2024-01-07T05:54:20;97967.78;;;0.14;100.00
27712;BME280;2377;51.734;8.950;2024-01-07T05:56:48;97974.81;;;0.11;100.00
27712;BME280;2377;51.734;8.950;2024-01-07T05:59:15;97982.34;;;0.11;100.00
27712;BME280;2377;51.734;8.950;2024-01-07T06:01:42;97982.34;;;0.11;99.80
27712;BME280;2377;51.734;8.950;2024-01-07T06:04:09;97983.78;;;0.13;100.00
27712;BME280;2377;51.734;8.950;2024-01-07T06:06:36;97991.97;;;0.15;100.00
27712;BME280;2377;51.734;8.950;2024-01-07T06:09:04;97992.63;;;0.17;100.00
27712;BME280;2377;51.734;8.950;2024-01-07T06:11:32;97998.56;;;0.16;99.54
27712;BME280;2377;51.734;8.950;2024-01-07T06:13:59;98000.72;;;0.11;99.71
27712;BME280;2377;51.734;8.950;2024-01-07T06:16:26;98008.84;;;0.05;99.24
27712;BME280;2377;51.734;8.950;2024-01-07T06:18:53;98014.50;;;0.07;99.31
27712;BME280;2377;51.734;8.950;2024-01-07T06:21:20;98010.41;;;0.06;99.35
27712;BME280;2377;51.734;8.950;2024-01-07T06:23:48;98016.88;;;0.09;100.00
27712;BME280;2377;51.734;8.950;2024-01-07T06:26:16;98020.16;;;0.09;99.76
27712;BME280;2377;51.734;8.950;2024-01-07T06:28:43;98032.09;;;0.07;99.76
27712;BME280;2377;51.734;8.950;2024-01-07T06:31:10;98029.59;;;0.07;99.63
27712;BME280;2377;51.734;8.950;2024-01-07T06:33:37;98033.59;;;0.00;99.09
27712;BME280;2377;51.734;8.950;2024-01-07T06:36:06;98032.34;;;0.04;99.13
27712;BME280;2377;51.734;8.950;2024-01-07T06:38:33;98041.13;;;0.00;98.98
27712;BME280;2377;51.734;8.950;2024-01-07T06:41:00;98044.56;;;-0.01;99.08
27712;BME280;2377;51.734;8.950;2024-01-07T06:43:31;98039.53;;;-0.01;99.19
27712;BME280;2377;51.734;8.950;2024-01-07T06:45:59;98031.22;;;-0.02;99.13
27712;BME280;2377;51.734;8.950;2024-01-07T06:48:26;98042.16;;;-0.03;99.35
27712;BME280;2377;51.734;8.950;2024-01-07T06:50:53;98041.66;;;-0.06;98.69
27712;BME280;2377;51.734;8.950;2024-01-07T06:53:20;98039.88;;;-0.24;97.75
27712;BME280;2377;51.734;8.950;2024-01-07T06:55:48;98053.38;;;-0.25;98.00
27712;BME280;2377;51.734;8.950;2024-01-07T06:58:15;98059.34;;;-0.26;97.98
27712;BME280;2377;51.734;8.950;2024-01-07T07:00:43;98053.91;;;-0.21;98.16
27712;BME280;2377;51.734;8.950;2024-01-07T07:03:10;98068.97;;;-0.21;98.80
27712;BME280;2377;51.734;8.950;2024-01-07T07:05:37;98066.31;;;-0.19;98.04
27712;BME280;2377;51.734;8.950;2024-01-07T07:08:05;98073.75;;;-0.28;97.33
27712;BME280;2377;51.734;8.950;2024-01-07T07:10:32;98074.28;;;-0.34;97.36
27712;BME280;2377;51.734;8.950;2024-01-07T07:12:59;98069.66;;;-0.38;97.47
27712;BME280;2377;51.734;8.950;2024-01-07T07:15:26;98069.66;;;-0.38;98.59
27712;BME280;2377;51.734;8.950;2024-01-07T07:17:55;98065.72;;;-0.41;98.24
27712;BME280;2377;51.734;8.950;2024-01-07T07:20:22;98074.69;;;-0.38;97.99
27712;BME280;2377;51.734;8.950;2024-01-07T07:22:50;98079.03;;;-0.40;97.43
27712;BME280;2377;51.734;8.950;2024-01-07T07:25:17;98080.88;;;-0.43;97.71
27712;BME280;2377;51.734;8.950;2024-01-07T07:27:44;98086.72;;;-0.42;97.91
27712;BME280;2377;51.734;8.950;2024-01-07T07:30:11;98090.72;;;-0.49;97.86
27712;BME280;2377;51.734;8.950;2024-01-07T07:32:39;98098.88;;;-0.47;97.45
27712;BME280;2377;51.734;8.950;2024-01-07T07:35:09;98106.97;;;-0.53;97.68
27712;BME280;2377;51.734;8.950;2024-01-07T07:37:37;98104.44;;;-0.53;97.54
27712;BME280;2377;51.734;8.950;2024-01-07T07:40:06;98105.75;;;-0.59;97.43
27712;BME280;2377;51.734;8.950;2024-01-07T07:42:33;98110.66;;;-0.57;97.24
27712;BME280;2377;51.734;8.950;2024-01-07T07:45:00;98118.47;;;-0.60;97.23
27712;BME280;2377;51.734;8.950;2024-01-07T07:47:27;98115.78;;;-0.59;96.89
27712;BME280;2377;51.734;8.950;2024-01-07T07:49:55;98127.56;;;-0.59;96.81
27712;BME280;2377;51.734;8.950;2024-01-07T07:52:23;98130.84;;;-0.59;96.75
27712;BME280;2377;51.734;8.950;2024-01-07T07:54:51;98126.66;;;-0.58;96.63
27712;BME280;2377;51.734;8.950;2024-01-07T07:57:18;98123.47;;;-0.60;96.16
27712;BME280;2377;51.734;8.950;2024-01-07T07:59:46;98137.59;;;-0.59;96.16
27712;BME280;2377;51.734;8.950;2024-01-07T08:02:13;98144.06;;;-0.57;96.31
27712;BME280;2377;51.734;8.950;2024-01-07T08:04:40;98139.06;;;-0.57;95.95
27712;BME280;2377;51.734;8.950;2024-01-07T08:07:08;98154.50;;;-0.61;95.70
27712;BME280;2377;51.734;8.950;2024-01-07T08:09:36;98157.00;;;-0.61;95.48
27712;BME280;2377;51.734;8.950;2024-01-07T08:12:05;98161.13;;;-0.60;95.65
27712;BME280;2377;51.734;8.950;2024-01-07T08:14:33;98154.00;;;-0.65;94.53
27712;BME280;2377;51.734;8.950;2024-01-07T08:17:01;98167.59;;;-0.68;94.80
27712;BME280;2377;51.734;8.950;2024-01-07T08:19:30;98172.34;;;-0.65;95.17
27712;BME280;2377;51.734;8.950;2024-01-07T08:21:58;98179.75;;;-0.63;95.26
27712;BME280;2377;51.734;8.950;2024-01-07T08:24:25;98182.66;;;-0.68;94.33
27712;BME280;2377;51.734;8.950;2024-01-07T08:26:53;98195.88;;;-0.66;94.67
27712;BME280;2377;51.734;8.950;2024-01-07T08:29:20;98200.88;;;-0.66;93.39
27712;BME280;2377;51.734;8.950;2024-01-07T08:31:47;98204.97;;;-0.65;94.08
27712;BME280;2377;51.734;8.950;2024-01-07T08:34:14;98217.25;;;-0.61;94.21
27712;BME280;2377;51.734;8.950;2024-01-07T08:36:41;98222.03;;;-0.58;93.91
27712;BME280;2377;51.734;8.950;2024-01-07T08:39:08;98225.31;;;-0.58;93.58
27712;BME280;2377;51.734;8.950;2024-01-07T08:41:36;98228.50;;;-0.56;93.67
27712;BME280;2377;51.734;8.950;2024-01-07T08:44:05;98246.59;;;-0.62;92.47
27712;BME280;2377;51.734;8.950;2024-01-07T08:46:34;98251.47;;;-0.60;92.60
27712;BME280;2377;51.734;8.950;2024-01-07T08:49:02;98255.16;;;-0.65;92.77
27712;BME280;2377;51.734;8.950;2024-01-07T08:51:29;98264.81;;;-0.60;92.82
27712;BME280;2377;51.734;8.950;2024-01-07T08:53:58;98270.34;;;-0.66;92.75
27712;BME280;2377;51.734;8.950;2024-01-07T08:56:25;98270.22;;;-0.65;92.92
27712;BME280;2377;51.734;8.950;2024-01-07T08:58:52;98273.69;;;-0.66;93.07
27712;BME280;2377;51.734;8.950;2024-01-07T09:01:20;98272.34;;;-0.70;92.98
27712;BME280;2377;51.734;8.950;2024-01-07T09:03:47;98274.31;;;-0.64;93.24
27712;BME280;2377;51.734;8.950;2024-01-07T09:06:14;98279.34;;;-0.64;93.23
27712;BME280;2377;51.734;8.950;2024-01-07T09:08:41;98288.19;;;-0.59;93.36
27712;BME280;2377;51.734;8.950;2024-01-07T09:11:09;98295.06;;;-0.61;92.69
27712;BME280;2377;51.734;8.950;2024-01-07T09:13:38;98292.41;;;-0.70;91.89
27712;BME280;2377;51.734;8.950;2024-01-07T09:16:06;98303.78;;;-0.66;92.83
27712;BME280;2377;51.734;8.950;2024-01-07T09:18:36;98310.94;;;-0.61;93.04
27712;BME280;2377;51.734;8.950;2024-01-07T09:21:04;98301.41;;;-0.57;93.05
27712;BME280;2377;51.734;8.950;2024-01-07T09:23:32;98309.44;;;-0.64;92.08
27712;BME280;2377;51.734;8.950;2024-01-07T09:25:59;98314.63;;;-0.65;91.77
27712;BME280;2377;51.734;8.950;2024-01-07T09:28:27;98317.78;;;-0.73;90.51
27712;BME280;2377;51.734;8.950;2024-01-07T09:30:54;98326.63;;;-0.69;91.26
27712;BME280;2377;51.734;8.950;2024-01-07T09:33:22;98324.66;;;-0.65;90.89
27712;BME280;2377;51.734;8.950;2024-01-07T09:35:50;98326.88;;;-0.72;89.92
27712;BME280;2377;51.734;8.950;2024-01-07T09:38:18;98332.56;;;-0.70;89.71
27712;BME280;2377;51.734;8.950;2024-01-07T09:40:45;98325.81;;;-0.69;89.24
27712;BME280;2377;51.734;8.950;2024-01-07T09:43:12;98330.06;;;-0.70;89.95
27712;BME280;2377;51.734;8.950;2024-01-07T09:45:42;98330.56;;;-0.76;89.19
27712;BME280;2377;51.734;8.950;2024-01-07T09:48:11;98331.56;;;-0.88;88.69
27712;BME280;2377;51.734;8.950;2024-01-07T09:50:38;98334.00;;;-0.77;89.21
27712;BME280;2377;51.734;8.950;2024-01-07T09:53:11;98332.94;;;-0.74;89.29
27712;BME280;2377;51.734;8.950;2024-01-07T09:55:56;98334.00;;;-0.77;88.93
27712;BME280;2377;51.734;8.950;2024-01-07T09:58:24;98335.16;;;-0.81;89.12
27712;BME280;2377;51.734;8.950;2024-01-07T10:00:52;98333.31;;;-0.79;88.30
27712;BME280;2377;51.734;8.950;2024-01-07T10:03:23;98327.63;;;-0.81;87.07
27712;BME280;2377;51.734;8.950;2024-01-07T10:05:50;98339.41;;;-0.81;86.96
27712;BME280;2377;51.734;8.950;2024-01-07T10:08:19;98337.94;;;-0.84;85.99
27712;BME280;2377;51.734;8.950;2024-01-07T10:10:48;98330.78;;;-0.89;85.78
27712;BME280;2377;51.734;8.950;2024-01-07T10:13:16;98344.91;;;-0.88;86.36
27712;BME280;2377;51.734;8.950;2024-01-07T10:15:43;98348.34;;;-0.89;86.18
27712;BME280;2377;51.734;8.950;2024-01-07T10:18:10;98340.81;;;-0.89;86.15
27712;BME280;2377;51.734;8.950;2024-01-07T10:20:37;98325.47;;;-0.95;84.41
27712;BME280;2377;51.734;8.950;2024-01-07T10:23:04;98344.88;;;-0.97;84.69
27712;BME280;2377;51.734;8.950;2024-01-07T10:25:36;98349.22;;;-0.99;83.70
27712;BME280;2377;51.734;8.950;2024-01-07T10:28:05;98356.63;;;-0.98;nan
27712;BME280;2377;51.734;8.950;2024-01-07T10:30:32;98357.81;;;-0.92;84.17
27712;BME280;2377;51.734;8.950;2024-01-07T10:32:59;98345.88;;;-0.79;84.70
27712;BME280;2377;51.734;8.950;2024-01-07T10:35:33;98342.97;;;-0.74;83.78
27712;BME280;2377;51.734;8.950;2024-01-07T10:38:00;98348.28;;;-0.68;82.70
27712;BME280;2377;51.734;8.950;2024-01-07T10:40:28;98358.75;;;-0.62;83.27
27712;BME280;2377;51.734;8.950;2024-01-07T10:42:58;98352.56;;;-0.58;82.36
27712;BME280;2377;51.734;8.950;2024-01-07T10:45:25;98357.72;;;-0.50;82.10
27712;BME280;2377;51.734;8.950;2024-01-07T10:47:59;98349.66;;;-0.54;80.75
27712;BME280;2377;51.734;8.950;2024-01-07T10:50:27;98358.09;;;-0.55;81.02
27712;BME280;2377;51.734;8.950;2024-01-07T10:53:03;98349.88;;;-0.67;79.89
27712;BME280;2377;51.734;8.950;2024-01-07T10:55:34;98354.63;;;-0.64;81.62
27712;BME280;2377;51.734;8.950;2024-01-07T10:58:04;98350.81;;;-0.68;81.31
27712;BME280;2377;51.734;8.950;2024-01-07T11:00:32;98365.19;;;-0.70;81.23
27712;BME280;2377;51.734;8.950;2024-01-07T11:03:10;98346.94;;;-0.72;81.57
27712;BME280;2377;51.734;8.950;2024-01-07T11:05:58;98353.03;;;-0.74;81.32
27712;BME280;2377;51.734;8.950;2024-01-07T11:08:33;98367.16;;;-0.73;81.89
27712;BME280;2377;51.734;8.950;2024-01-07T11:11:09;98352.06;;;-0.83;80.94
27712;BME280;2377;51.734;8.950;2024-01-07T11:13:41;98354.81;;;-0.86;81.52
27712;BME280;2377;51.734;8.950;2024-01-07T11:16:09;98356.97;;;-0.81;81.43
27712;BME280;2377;51.734;8.950;2024-01-07T11:18:40;98360.44;;;-0.73;82.06
27712;BME280;2377;51.734;8.950;2024-01-07T11:21:07;98367.28;;;-0.75;81.39
27712;BME280;2377;51.734;8.950;2024-01-07T11:23:36;98367.03;;;-0.72;81.36
27712;BME280;2377;51.734;8.950;2024-01-07T11:26:06;98365.44;;;-0.73;81.18
27712;BME280;2377;51.734;8.950;2024-01-07T11:28:49;98368.09;;;-0.74;82.10
27712;BME280;2377;51.734;8.950;2024-01-07T11:31:19;98372.53;;;-0.78;81.43
27712;BME280;2377;51.734;8.950;2024-01-07T11:33:49;98370.03;;;-0.78;83.01
27712;BME280;2377;51.734;8.950;2024-01-07T11:36:17;98363.19;;;-0.76;82.06
27712;BME280;2377;51.734;8.950;2024-01-07T11:38:48;98362.28;;;-0.75;82.37
27712;BME280;2377;51.734;8.950;2024-01-07T11:41:16;98358.53;;;-0.80;82.81
27712;BME280;2377;51.734;8.950;2024-01-07T11:43:56;98360.94;;;-0.79;82.79
27712;BME280;2377;51.734;8.950;2024-01-07T11:46:25;98365.94;;;-0.79;82.94
27712;BME280;2377;51.734;8.950;2024-01-07T11:48:54;98367.50;;;-0.88;82.85
27712;BME280;2377;51.734;8.950;2024-01-07T11:51:25;98377.16;;;-0.83;82.96
27712;BME280;2377;51.734;8.950;2024-01-07T11:53:52;98377.53;;;-0.88;82.03
27712;BME280;2377;51.734;8.950;2024-01-07T11:56:20;98368.22;;;-0.97;81.69
27712;BME280;2377;51.734;8.950;2024-01-07T11:58:47;98376.72;;;-0.88;82.87
27712;BME280;2377;51.734;8.950;2024-01-07T12:01:16;98379.28;;;-0.78;83.21
27712;BME280;2377;51.734;8.950;2024-01-07T12:03:44;98379.16;;;-0.77;82.46
27712;BME280;2377;51.734;8.950;2024-01-07T12:06:11;98377.69;;;-0.79;83.15
27712;BME280;2377;51.734;8.950;2024-01-07T12:08:40;98378.44;;;-0.89;82.89
27712;BME280;2377;51.734;8.950;2024-01-07T12:11:08;98382.84;;;-0.81;82.90
27712;BME280;2377;51.734;8.950;2024-01-07T12:13:36;98384.00;;;-0.85;83.91
27712;BME280;2377;51.734;8.950;2024-01-07T12:16:05;98382.84;;;-0.81;84.03
27712;BME280;2377;51.734;8.950;2024-01-07T12:18:36;98395.28;;;-0.79;83.88
27712;BME280;2377;51.734;8.950;2024-01-07T12:21:04;98377.81;;;-0.81;84.51
27712;BME280;2377;51.734;8.950;2024-01-07T12:23:35;98391.03;;;-0.79;84.11
27712;BME280;2377;51.734;8.950;2024-01-07T12:26:08;98395.94;;;-0.77;84.36
27712;BME280;2377;51.734;8.950;2024-01-07T12:28:36;98392.63;;;-0.78;84.04
27712;BME280;2377;51.734;8.950;2024-01-07T12:31:04;98395.78;;;-0.76;84.36
27712;BME280;2377;51.734;8.950;2024-01-07T12:33:33;98404.00;;;-0.74;84.72
27712;BME280;2377;51.734;8.950;2024-01-07T12:36:01;98406.50;;;-0.74;84.73
27712;BME280;2377;51.734;8.950;2024-01-07T12:38:28;98397.41;;;-0.75;85.13
27712;BME280;2377;51.734;8.950;2024-01-07T12:40:56;98400.81;;;-0.76;85.13
27712;BME280;2377;51.734;8.950;2024-01-07T12:43:23;98399.34;;;-0.78;85.75
27712;BME280;2377;51.734;8.950;2024-01-07T12:45:51;98402.25;;;-0.83;85.78
27712;BME280;2377;51.734;8.950;2024-01-07T12:48:18;98398.16;;;-0.84;85.65
27712;BME280;2377;51.734;8.950;2024-01-07T12:50:47;98399.06;;;-0.85;86.29
27712;BME280;2377;51.734;8.950;2024-01-07T12:53:14;98406.34;;;-0.82;86.05
27712;BME280;2377;51.734;8.950;2024-01-07T12:55:42;98399.72;;;-0.83;85.86
27712;BME280;2377;51.734;8.950;2024-01-07T12:58:09;98409.53;;;-0.80;86.10
27712;BME280;2377;51.734;8.950;2024-01-07T13:00:36;98414.03;;;-0.74;86.70
27712;BME280;2377;51.734;8.950;2024-01-07T13:03:05;98418.53;;;-0.77;86.13
27712;BME280;2377;51.734;8.950;2024-01-07T13:05:33;98417.19;;;-0.81;86.09
27712;BME280;2377;51.734;8.950;2024-01-07T13:08:03;98420.47;;;-0.81;86.61
27712;BME280;2377;51.734;8.950;2024-01-07T13:10:32;98420.38;;;-0.79;86.41
27712;BME280;2377;51.734;8.950;2024-01-07T13:12:59;98425.25;;;-0.78;86.06
27712;BME280;2377;51.734;8.950;2024-01-07T13:15:26;98426.59;;;-0.74;86.34
27712;BME280;2377;51.734;8.950;2024-01-07T13:17:53;98427.25;;;-0.72;86.66